createdAt,value
2018-03-31T00:00:35.991Z,7.98
2018-03-31T00:03:04.153Z,8.06
2018-03-31T00:05:32.362Z,8.02
2018-03-31T00:08:00.510Z,7.99
2018-03-31T00:10:28.741Z,7.99
2018-03-31T00:12:57.040Z,8.10
2018-03-31T00:15:25.312Z,8.08
2018-03-31T00:17:53.495Z,8.11
2018-03-31T00:20:22.718Z,8.00
2018-03-31T00:22:51.834Z,8.31
2018-03-31T00:25:20.054Z,8.21
2018-03-31T00:27:48.239Z,8.15
2018-03-31T00:30:16.423Z,8.04
2018-03-31T00:32:44.609Z,8.05
2018-03-31T00:35:12.578Z,8.08
2018-03-31T00:37:40.756Z,8.07
2018-03-31T00:40:08.897Z,8.09
2018-03-31T00:42:37.082Z,8.08
2018-03-31T00:45:05.484Z,8.08
2018-03-31T00:47:33.739Z,8.09
2018-03-31T00:50:01.902Z,8.12
2018-03-31T00:52:30.113Z,8.32
2018-03-31T00:54:58.257Z,8.70
2018-03-31T00:57:26.439Z,9.07
2018-03-31T00:59:54.613Z,8.86
2018-03-31T01:02:22.917Z,8.90
2018-03-31T01:04:51.189Z,8.82
2018-03-31T01:07:19.337Z,8.79
2018-03-31T01:09:47.510Z,8.69
2018-03-31T01:12:15.727Z,8.67
2018-03-31T01:14:43.953Z,8.70
2018-03-31T01:17:12.167Z,8.60
2018-03-31T01:19:40.514Z,8.55
2018-03-31T01:22:08.690Z,8.50
2018-03-31T01:24:37.102Z,8.43
2018-03-31T01:27:05.674Z,8.40
2018-03-31T01:29:33.935Z,8.33
2018-03-31T01:32:02.135Z,8.25
2018-03-31T01:34:30.401Z,8.21
2018-03-31T01:36:58.552Z,8.19
2018-03-31T01:39:26.724Z,8.16
2018-03-31T01:41:54.997Z,8.08
2018-03-31T01:44:23.209Z,8.09
2018-03-31T01:46:51.345Z,8.08
2018-03-31T01:49:19.546Z,8.04
2018-03-31T01:51:47.950Z,8.08
2018-03-31T01:54:16.259Z,8.16
2018-03-31T01:56:44.465Z,8.19
2018-03-31T01:59:12.665Z,8.19
2018-03-31T02:01:40.949Z,8.20
2018-03-31T02:04:09.099Z,8.17
2018-03-31T02:06:37.514Z,8.17
2018-03-31T02:09:05.749Z,8.16
2018-03-31T02:11:33.957Z,8.29
2018-03-31T02:14:02.330Z,8.29
2018-03-31T02:16:30.617Z,8.20
2018-03-31T02:18:58.921Z,8.21
2018-03-31T02:21:27.131Z,8.27
2018-03-31T02:23:55.339Z,8.30
2018-03-31T02:26:23.484Z,8.35
2018-03-31T02:28:51.851Z,8.39
2018-03-31T02:31:20.837Z,8.41
2018-03-31T02:33:49.262Z,8.44
2018-03-31T02:36:17.651Z,8.52
2018-03-31T02:38:45.934Z,8.58
2018-03-31T02:41:14.153Z,8.57
2018-03-31T02:43:42.368Z,8.49
2018-03-31T02:46:10.609Z,8.39
2018-03-31T02:48:38.755Z,8.35
2018-03-31T02:51:07.000Z,8.39
2018-03-31T02:53:35.373Z,8.40
2018-03-31T02:56:03.767Z,8.33
2018-03-31T02:58:31.990Z,8.30
2018-03-31T03:01:00.174Z,8.33
2018-03-31T03:03:28.174Z,8.34
2018-03-31T03:05:56.146Z,8.32
2018-03-31T03:08:24.279Z,8.42
2018-03-31T03:10:52.515Z,8.31
2018-03-31T03:13:20.653Z,8.24
2018-03-31T03:15:48.299Z,8.19
2018-03-31T03:18:15.999Z,8.20
2018-03-31T03:20:43.659Z,8.17
2018-03-31T03:23:11.338Z,8.18
2018-03-31T03:25:39.021Z,8.19
2018-03-31T03:28:06.740Z,8.16
2018-03-31T03:30:34.396Z,8.09
2018-03-31T03:33:02.053Z,8.10
2018-03-31T03:35:29.823Z,8.29
2018-03-31T03:37:57.487Z,8.26
2018-03-31T03:40:25.137Z,8.19
2018-03-31T03:42:52.825Z,8.13
2018-03-31T03:45:20.471Z,8.12
2018-03-31T03:47:48.110Z,8.13
2018-03-31T03:50:15.806Z,8.16
2018-03-31T03:52:43.473Z,8.14
2018-03-31T03:55:11.123Z,8.08
2018-03-31T03:57:38.895Z,8.09
2018-03-31T04:00:06.661Z,8.04
2018-03-31T04:02:34.371Z,7.99
2018-03-31T04:05:02.084Z,7.96
2018-03-31T04:07:29.909Z,7.95
2018-03-31T04:09:57.567Z,7.91
2018-03-31T04:12:25.261Z,7.89
2018-03-31T04:14:52.940Z,7.89
2018-03-31T04:17:20.681Z,7.89
2018-03-31T04:19:48.325Z,7.90
2018-03-31T04:22:15.979Z,7.95
2018-03-31T04:24:43.818Z,8.04
2018-03-31T04:27:11.665Z,8.12
2018-03-31T04:29:39.309Z,8.24
2018-03-31T04:32:07.093Z,8.34
2018-03-31T04:34:34.734Z,8.40
2018-03-31T04:37:02.423Z,8.49
2018-03-31T04:39:30.349Z,8.54
2018-03-31T04:41:58.026Z,8.62
2018-03-31T04:44:25.712Z,8.72
2018-03-31T04:46:53.370Z,8.81
2018-03-31T04:49:21.129Z,8.94
2018-03-31T04:51:48.836Z,9.02
2018-03-31T04:54:16.554Z,9.11
2018-03-31T04:56:44.231Z,9.15
2018-03-31T04:59:12.657Z,9.35
2018-03-31T05:01:40.444Z,9.44
2018-03-31T05:04:08.374Z,9.52
2018-03-31T05:06:36.079Z,9.74
2018-03-31T05:09:04.482Z,9.89
2018-03-31T05:11:32.145Z,9.69
2018-03-31T05:13:59.890Z,9.64
2018-03-31T05:16:27.571Z,9.76
2018-03-31T05:18:55.290Z,9.92
2018-03-31T05:21:22.965Z,10.47
2018-03-31T05:23:50.751Z,10.24
2018-03-31T05:26:18.393Z,10.22
2018-03-31T05:28:46.089Z,10.47
2018-03-31T05:31:13.752Z,10.75
2018-03-31T05:33:41.405Z,10.92
2018-03-31T05:36:09.063Z,11.03
2018-03-31T05:38:37.490Z,11.26
2018-03-31T05:41:05.162Z,11.47
2018-03-31T05:43:32.830Z,11.59
2018-03-31T05:46:00.525Z,11.37
2018-03-31T05:48:28.178Z,11.60
2018-03-31T05:50:55.827Z,11.62
2018-03-31T05:53:23.734Z,11.10
2018-03-31T05:55:52.037Z,11.15
2018-03-31T05:58:19.677Z,11.40
2018-03-31T06:00:47.369Z,11.21
2018-03-31T06:03:15.105Z,11.22
2018-03-31T06:05:42.887Z,10.93
2018-03-31T06:08:10.534Z,10.94
2018-03-31T06:10:38.185Z,10.71
2018-03-31T06:13:06.066Z,10.71
2018-03-31T06:15:33.720Z,10.89
2018-03-31T06:18:01.676Z,10.92
2018-03-31T06:20:29.974Z,10.92
2018-03-31T06:22:57.740Z,10.97
2018-03-31T06:25:25.391Z,11.01
2018-03-31T06:27:53.055Z,10.98
2018-03-31T06:30:20.739Z,11.14
2018-03-31T06:32:48.434Z,11.23
2018-03-31T06:35:16.075Z,11.54
2018-03-31T06:37:43.828Z,11.47
2018-03-31T06:40:11.509Z,11.26
2018-03-31T06:42:39.244Z,11.49
2018-03-31T06:45:07.001Z,11.36
2018-03-31T06:47:34.699Z,11.71
2018-03-31T06:50:02.378Z,11.22
2018-03-31T06:52:30.047Z,11.34
2018-03-31T06:54:57.687Z,11.30
2018-03-31T06:57:25.322Z,11.51
2018-03-31T06:59:53.088Z,11.89
2018-03-31T07:02:21.382Z,11.99
2018-03-31T07:04:49.035Z,12.09
2018-03-31T07:07:16.840Z,12.21
2018-03-31T07:09:44.517Z,11.90
2018-03-31T07:12:12.169Z,12.17
2018-03-31T07:14:39.867Z,12.46
2018-03-31T07:17:08.205Z,12.23
2018-03-31T07:19:36.682Z,12.16
2018-03-31T07:22:04.491Z,12.42
2018-03-31T07:24:32.168Z,12.61
2018-03-31T07:26:59.939Z,12.77
2018-03-31T07:29:27.601Z,13.03
2018-03-31T07:31:55.251Z,13.16
2018-03-31T07:34:22.890Z,13.17
2018-03-31T07:36:51.261Z,13.20
2018-03-31T07:39:18.963Z,13.69
2018-03-31T07:41:46.624Z,13.63
2018-03-31T07:44:14.306Z,13.68
2018-03-31T07:46:42.058Z,13.95
2018-03-31T07:49:09.713Z,14.14
2018-03-31T07:51:37.474Z,13.98
2018-03-31T07:54:05.171Z,14.42
2018-03-31T07:56:32.872Z,14.48
2018-03-31T07:59:00.518Z,14.56
2018-03-31T08:01:28.332Z,14.85
2018-03-31T08:03:55.995Z,15.43
2018-03-31T08:06:23.629Z,14.86
2018-03-31T08:08:51.307Z,15.39
2018-03-31T08:11:19.065Z,15.31
2018-03-31T08:13:46.763Z,15.20
2018-03-31T08:16:14.462Z,15.22
2018-03-31T08:18:42.187Z,15.07
2018-03-31T08:21:09.974Z,15.16
2018-03-31T08:23:37.654Z,15.10
2018-03-31T08:26:06.094Z,15.20
2018-03-31T08:28:33.744Z,15.13
2018-03-31T08:31:01.423Z,15.07
2018-03-31T08:33:29.106Z,15.64
2018-03-31T08:35:56.755Z,15.77
2018-03-31T08:38:24.406Z,16.08
2018-03-31T08:40:52.059Z,16.32
2018-03-31T08:43:19.797Z,16.19
2018-03-31T08:45:47.488Z,15.92
2018-03-31T08:48:15.148Z,16.68
2018-03-31T08:50:42.855Z,16.60
2018-03-31T08:53:10.585Z,16.89
2018-03-31T08:55:39.157Z,16.98
2018-03-31T08:58:06.831Z,17.16
2018-03-31T09:00:34.595Z,17.36
2018-03-31T09:03:02.365Z,18.05
2018-03-31T09:05:30.019Z,17.04
2018-03-31T09:07:57.661Z,17.33
2018-03-31T09:10:25.458Z,18.28
2018-03-31T09:12:53.218Z,18.26
2018-03-31T09:15:20.986Z,17.51
2018-03-31T09:17:48.788Z,17.39
2018-03-31T09:20:16.435Z,17.93
2018-03-31T09:22:45.783Z,17.54
2018-03-31T09:25:11.946Z,18.49
2018-03-31T09:27:39.699Z,17.71
2018-03-31T09:30:07.387Z,17.50
2018-03-31T09:32:35.125Z,18.12
2018-03-31T09:35:02.786Z,17.70
2018-03-31T09:37:30.430Z,17.40
2018-03-31T09:39:58.148Z,18.72
2018-03-31T09:42:25.810Z,18.35
2018-03-31T09:44:53.552Z,18.62
2018-03-31T09:47:21.204Z,19.13
2018-03-31T09:49:48.868Z,18.99
2018-03-31T09:52:16.642Z,19.32
2018-03-31T09:54:44.350Z,19.13
2018-03-31T09:57:12.019Z,18.85
2018-03-31T09:59:39.730Z,18.80
2018-03-31T10:02:07.417Z,18.56
2018-03-31T10:04:35.159Z,18.32
2018-03-31T10:07:02.931Z,18.11
2018-03-31T10:09:30.626Z,18.19
2018-03-31T10:11:58.310Z,18.17
2018-03-31T10:14:25.953Z,19.55
2018-03-31T10:16:54.296Z,20.19
2018-03-31T10:19:21.953Z,19.79
2018-03-31T10:21:49.867Z,19.71
2018-03-31T10:24:17.586Z,19.92
2018-03-31T10:26:45.550Z,20.28
2018-03-31T10:29:13.203Z,20.11
2018-03-31T10:31:40.984Z,20.55
2018-03-31T10:34:08.730Z,18.44
2018-03-31T10:36:36.415Z,19.56
2018-03-31T10:39:04.107Z,19.80
2018-03-31T10:41:31.754Z,20.74
2018-03-31T10:43:59.506Z,21.60
2018-03-31T10:46:27.185Z,22.16
2018-03-31T10:48:54.934Z,20.42
2018-03-31T10:51:22.578Z,20.46
2018-03-31T10:53:50.285Z,21.14
2018-03-31T10:56:17.973Z,20.79
2018-03-31T10:58:45.627Z,20.67
2018-03-31T11:01:13.313Z,20.57
2018-03-31T11:03:40.955Z,21.97
2018-03-31T11:06:08.625Z,21.81
2018-03-31T11:08:36.277Z,21.33
2018-03-31T11:11:03.927Z,21.29
2018-03-31T11:13:31.689Z,20.97
2018-03-31T11:15:59.335Z,21.41
2018-03-31T11:18:26.979Z,19.77
2018-03-31T11:20:54.657Z,20.14
2018-03-31T11:23:22.923Z,21.38
2018-03-31T11:25:50.803Z,22.02
2018-03-31T11:28:18.441Z,21.08
2018-03-31T11:30:46.094Z,21.59
2018-03-31T11:33:13.743Z,21.47
2018-03-31T11:35:41.448Z,22.34
2018-03-31T11:38:09.125Z,23.01
2018-03-31T11:40:36.880Z,22.12
2018-03-31T11:43:04.533Z,22.28
2018-03-31T11:45:32.246Z,22.57
2018-03-31T11:47:59.915Z,20.95
2018-03-31T11:50:27.567Z,20.91
2018-03-31T11:52:55.267Z,21.11
2018-03-31T11:55:23.181Z,21.87
2018-03-31T11:57:51.385Z,22.38
2018-03-31T12:00:19.129Z,23.22
2018-03-31T12:02:46.789Z,22.56
2018-03-31T12:05:14.433Z,21.84
2018-03-31T12:07:42.190Z,21.60
2018-03-31T12:10:09.867Z,21.68
2018-03-31T12:12:37.567Z,21.22
2018-03-31T12:15:05.260Z,22.48
2018-03-31T12:17:32.924Z,23.08
2018-03-31T12:20:00.761Z,23.81
2018-03-31T12:22:28.422Z,23.09
2018-03-31T12:24:56.072Z,22.35
2018-03-31T12:27:23.809Z,21.80
2018-03-31T12:29:51.685Z,21.60
2018-03-31T12:32:19.409Z,21.96
2018-03-31T12:34:47.092Z,21.42
2018-03-31T12:37:14.735Z,21.53
2018-03-31T12:39:42.422Z,21.64
2018-03-31T12:42:10.094Z,21.72
2018-03-31T12:44:37.749Z,21.93
2018-03-31T12:47:05.381Z,22.33
2018-03-31T12:49:33.017Z,21.82
2018-03-31T12:52:00.731Z,21.84
2018-03-31T12:54:28.461Z,21.28
2018-03-31T12:56:56.110Z,21.53
2018-03-31T12:59:23.801Z,22.14
2018-03-31T13:01:51.437Z,22.32
2018-03-31T13:04:19.158Z,23.08
2018-03-31T13:06:46.837Z,23.89
2018-03-31T13:09:14.482Z,23.20
2018-03-31T13:11:42.226Z,23.70
2018-03-31T13:14:09.992Z,23.08
2018-03-31T13:16:37.677Z,23.07
2018-03-31T13:19:05.427Z,23.37
2018-03-31T13:21:33.123Z,23.14
2018-03-31T13:24:01.036Z,22.36
2018-03-31T13:26:28.698Z,22.21
2018-03-31T13:28:56.381Z,22.86
2018-03-31T13:31:24.046Z,22.84
2018-03-31T13:33:51.691Z,23.60
2018-03-31T13:36:19.466Z,23.21
2018-03-31T13:38:47.181Z,22.27
2018-03-31T13:41:14.826Z,22.37
2018-03-31T13:43:42.477Z,23.38
2018-03-31T13:46:10.175Z,23.50
2018-03-31T13:48:37.842Z,23.99
2018-03-31T13:51:05.473Z,24.40
2018-03-31T13:53:33.311Z,24.14
2018-03-31T13:56:00.957Z,24.16
2018-03-31T13:58:28.738Z,22.80
2018-03-31T14:00:56.454Z,22.40
2018-03-31T14:03:24.175Z,22.79
2018-03-31T14:05:51.918Z,22.53
2018-03-31T14:08:19.698Z,23.58
2018-03-31T14:10:47.350Z,22.48
2018-03-31T14:13:15.041Z,22.99
2018-03-31T14:15:42.794Z,23.18
2018-03-31T14:18:10.433Z,24.07
2018-03-31T14:20:38.307Z,22.67
2018-03-31T14:23:05.982Z,22.18
2018-03-31T14:25:33.745Z,22.32
2018-03-31T14:28:01.381Z,22.84
2018-03-31T14:30:29.082Z,23.21
2018-03-31T14:32:56.740Z,22.64
2018-03-31T14:35:24.413Z,23.54
2018-03-31T14:37:52.141Z,23.43
2018-03-31T14:40:19.814Z,23.36
2018-03-31T14:42:47.492Z,23.09
2018-03-31T14:45:15.345Z,22.71
2018-03-31T14:47:43.030Z,22.19
2018-03-31T14:50:10.680Z,21.78
2018-03-31T14:52:38.364Z,21.48
2018-03-31T14:55:06.011Z,21.38
2018-03-31T14:57:33.778Z,21.44
2018-03-31T15:00:01.449Z,21.72
2018-03-31T15:02:29.104Z,22.08
2018-03-31T15:04:56.976Z,22.60
2018-03-31T15:07:24.654Z,22.78
2018-03-31T15:09:53.793Z,23.19
2018-03-31T15:12:21.485Z,23.87
2018-03-31T15:14:49.159Z,24.14
2018-03-31T15:17:16.822Z,24.96
2018-03-31T15:19:44.591Z,24.79
2018-03-31T15:22:12.458Z,25.56
2018-03-31T15:24:40.267Z,24.69
2018-03-31T15:27:07.913Z,25.07
2018-03-31T15:29:35.698Z,24.72
2018-03-31T15:32:03.387Z,24.78
2018-03-31T15:34:31.035Z,24.43
2018-03-31T15:36:59.730Z,24.00
2018-03-31T15:39:27.443Z,23.76
2018-03-31T15:41:55.176Z,24.08
2018-03-31T15:44:22.818Z,23.76
2018-03-31T15:46:50.604Z,23.01
2018-03-31T15:49:18.233Z,22.25
2018-03-31T15:51:45.918Z,21.31
2018-03-31T15:54:13.699Z,20.64
2018-03-31T15:56:41.334Z,19.91
2018-03-31T15:59:09.026Z,19.45
2018-03-31T16:01:37.304Z,19.28
2018-03-31T16:04:04.947Z,19.43
2018-03-31T16:06:32.659Z,19.20
2018-03-31T16:09:00.322Z,19.19
2018-03-31T16:11:27.964Z,19.25
2018-03-31T16:13:56.579Z,19.33
2018-03-31T16:16:24.228Z,19.49
2018-03-31T16:18:51.860Z,19.39
2018-03-31T16:21:19.538Z,19.21
2018-03-31T16:23:47.189Z,18.80
2018-03-31T16:26:14.956Z,18.63
2018-03-31T16:28:42.599Z,18.39
2018-03-31T16:31:10.229Z,18.21
2018-03-31T16:33:37.942Z,17.96
2018-03-31T16:36:05.606Z,17.92
2018-03-31T16:38:33.317Z,17.95
2018-03-31T16:41:01.032Z,17.78
2018-03-31T16:43:28.694Z,17.77
2018-03-31T16:45:56.383Z,17.78
2018-03-31T16:48:24.126Z,17.78
2018-03-31T16:50:51.801Z,17.84
2018-03-31T16:53:19.477Z,17.94
2018-03-31T16:55:47.118Z,17.99
2018-03-31T16:58:14.773Z,17.98
2018-03-31T17:00:42.459Z,17.83
2018-03-31T17:03:10.149Z,17.80
2018-03-31T17:05:37.814Z,17.73
2018-03-31T17:08:05.630Z,17.88
2018-03-31T17:10:33.287Z,17.81
2018-03-31T17:13:01.473Z,17.80
2018-03-31T17:15:29.167Z,17.77
2018-03-31T17:17:56.897Z,17.64
2018-03-31T17:20:24.624Z,17.61
2018-03-31T17:22:52.336Z,17.64
2018-03-31T17:25:19.986Z,17.61
2018-03-31T17:27:47.657Z,17.50
2018-03-31T17:30:15.317Z,17.42
2018-03-31T17:32:42.985Z,17.51
2018-03-31T17:35:10.630Z,17.38
2018-03-31T17:37:38.277Z,17.37
2018-03-31T17:40:06.010Z,17.21
2018-03-31T17:42:33.701Z,17.30
2018-03-31T17:45:01.391Z,17.08
2018-03-31T17:47:29.029Z,17.70
2018-03-31T17:49:56.692Z,17.35
2018-03-31T17:52:24.475Z,17.19
2018-03-31T17:54:52.185Z,17.18
2018-03-31T17:57:19.835Z,17.16
2018-03-31T17:59:47.491Z,17.20
2018-03-31T18:02:15.220Z,17.44
2018-03-31T18:04:42.877Z,17.59
2018-03-31T18:07:10.556Z,17.21
2018-03-31T18:09:38.327Z,17.06
2018-03-31T18:12:05.965Z,17.09
2018-03-31T18:14:33.631Z,16.95
2018-03-31T18:17:01.305Z,16.91
2018-03-31T18:19:28.952Z,16.90
2018-03-31T18:21:56.661Z,16.96
2018-03-31T18:24:24.401Z,16.78
2018-03-31T18:26:52.150Z,16.73
2018-03-31T18:29:19.851Z,16.70
2018-03-31T18:31:47.490Z,16.69
2018-03-31T18:34:15.125Z,16.59
2018-03-31T18:36:42.813Z,16.64
2018-03-31T18:39:10.493Z,16.42
2018-03-31T18:41:38.186Z,16.37
2018-03-31T18:44:06.012Z,16.43
2018-03-31T18:46:33.649Z,16.30
2018-03-31T18:49:01.294Z,16.44
2018-03-31T18:51:29.060Z,16.37
2018-03-31T18:53:56.765Z,16.47
2018-03-31T18:56:24.423Z,16.26
2018-03-31T18:58:52.487Z,16.05
2018-03-31T19:01:20.161Z,15.90
2018-03-31T19:03:47.806Z,15.73
2018-03-31T19:06:15.498Z,15.74
2018-03-31T19:08:43.142Z,15.63
2018-03-31T19:11:10.919Z,15.68
2018-03-31T19:13:38.600Z,15.59
2018-03-31T19:16:06.277Z,15.44
2018-03-31T19:18:33.931Z,15.50
2018-03-31T19:21:01.611Z,15.57
2018-03-31T19:23:29.249Z,16.10
2018-03-31T19:25:56.890Z,15.58
2018-03-31T19:28:24.565Z,15.36
2018-03-31T19:30:52.217Z,15.41
2018-03-31T19:33:19.857Z,15.31
2018-03-31T19:35:53.093Z,15.21
2018-03-31T19:38:21.577Z,15.26
2018-03-31T19:40:49.287Z,15.19
2018-03-31T19:43:16.954Z,15.17
2018-03-31T19:45:44.589Z,15.09
2018-03-31T19:48:12.229Z,14.98
2018-03-31T19:50:39.872Z,14.99
2018-03-31T19:53:07.585Z,14.98
2018-03-31T19:55:35.300Z,14.88
2018-03-31T19:58:02.955Z,14.94
2018-03-31T20:00:30.621Z,14.81
2018-03-31T20:02:58.305Z,14.78
2018-03-31T20:05:25.995Z,14.92
2018-03-31T20:07:54.349Z,14.89
2018-03-31T20:10:22.049Z,14.93
2018-03-31T20:12:49.730Z,15.02
2018-03-31T20:15:17.385Z,15.25
2018-03-31T20:17:45.126Z,15.61
2018-03-31T20:20:12.838Z,15.64
2018-03-31T20:22:40.507Z,15.90
2018-03-31T20:25:08.267Z,15.74
2018-03-31T20:27:35.907Z,15.64
2018-03-31T20:30:03.553Z,15.62
2018-03-31T20:32:31.230Z,15.59
2018-03-31T20:34:58.930Z,15.57
2018-03-31T20:37:26.573Z,15.52
2018-03-31T20:39:54.480Z,15.44
2018-03-31T20:42:22.146Z,15.52
2018-03-31T20:44:49.978Z,15.44
2018-03-31T20:47:17.638Z,15.54
2018-03-31T20:49:45.267Z,15.54
2018-03-31T20:52:13.521Z,15.46
2018-03-31T20:54:41.250Z,15.34
2018-03-31T20:57:08.896Z,15.33
2018-03-31T20:59:36.592Z,15.18
2018-03-31T21:02:04.344Z,15.14
2018-03-31T21:04:31.981Z,14.95
2018-03-31T21:06:59.621Z,14.88
2018-03-31T21:09:27.267Z,14.94
2018-03-31T21:11:54.983Z,14.83
2018-03-31T21:14:22.685Z,14.97
2018-03-31T21:16:50.326Z,14.92
2018-03-31T21:19:18.085Z,14.87
2018-03-31T21:21:45.766Z,14.86
2018-03-31T21:24:13.404Z,14.78
2018-03-31T21:26:41.052Z,14.91
2018-03-31T21:29:08.736Z,15.06
2018-03-31T21:31:36.502Z,15.10
2018-03-31T21:34:04.784Z,15.04
2018-03-31T21:36:32.417Z,15.06
2018-03-31T21:39:00.066Z,14.93
2018-03-31T21:41:27.768Z,15.08
2018-03-31T21:43:55.397Z,14.93
2018-03-31T21:46:23.039Z,15.04
2018-03-31T21:48:50.707Z,15.04
2018-03-31T21:51:18.505Z,15.16
2018-03-31T21:53:46.185Z,15.15
2018-03-31T21:56:13.858Z,15.06
2018-03-31T21:58:41.494Z,14.89
2018-03-31T22:01:09.230Z,14.74
2018-03-31T22:03:36.893Z,14.85
2018-03-31T22:06:04.553Z,14.70
2018-03-31T22:08:32.339Z,14.71
2018-03-31T22:10:59.977Z,14.82
2018-03-31T22:16:32.166Z,14.89
2018-03-31T22:18:59.845Z,14.70
2018-03-31T22:21:27.640Z,14.75
2018-03-31T22:23:55.274Z,14.86
2018-03-31T22:26:22.941Z,14.86
2018-03-31T22:28:50.631Z,14.80
2018-03-31T22:31:18.323Z,14.82
2018-03-31T22:33:46.054Z,15.00
2018-03-31T22:36:13.695Z,14.91
2018-03-31T22:38:41.373Z,14.83
2018-03-31T22:41:09.073Z,14.91
2018-03-31T22:43:36.754Z,15.08
2018-03-31T22:46:04.426Z,15.15
2018-03-31T22:48:32.073Z,15.56
2018-03-31T22:50:59.734Z,15.64
2018-03-31T22:53:27.433Z,15.95
2018-03-31T22:55:55.097Z,15.71
2018-03-31T22:58:22.759Z,15.69
2018-03-31T23:00:50.435Z,15.65
2018-03-31T23:03:18.682Z,15.83
2018-03-31T23:05:46.989Z,15.69
2018-03-31T23:08:15.097Z,15.49
2018-03-31T23:10:43.412Z,15.40
2018-03-31T23:13:11.717Z,15.64
2018-03-31T23:15:39.993Z,15.54
2018-03-31T23:18:08.950Z,15.18
2018-03-31T23:20:37.134Z,15.02
2018-03-31T23:23:05.338Z,15.23
2018-03-31T23:25:33.458Z,15.07
2018-03-31T23:28:01.745Z,14.76
2018-03-31T23:30:29.993Z,14.56
2018-03-31T23:32:58.209Z,14.47
2018-03-31T23:35:26.430Z,14.50
2018-03-31T23:37:54.577Z,14.58
2018-03-31T23:40:22.357Z,14.21
2018-03-31T23:42:50.066Z,13.99
2018-03-31T23:45:17.785Z,13.75
2018-03-31T23:47:45.491Z,13.65
2018-03-31T23:50:13.221Z,13.44
2018-03-31T23:52:40.897Z,13.79
2018-03-31T23:55:08.610Z,13.28
2018-03-31T23:57:36.261Z,13.34
